Time;durP1;ratioP1;P1;durP2;ratioP2;P2;SDS_P1;SDS_P2;PMS_P1;PMS_P2;Temp;Humidity;BMP_temperature;BMP_pressure;BME280_temperature;BME280_humidity;BME280_pressure;Samples;Min_cycle;Max_cycle;Signal;HPM_P1;HPM_P2
2023/04/08 00:00:56;;;;;;;34.70;27.55;;;5.80;99.90;;;;;;6189282;23;20346;-86
2023/04/08 00:03:24;;;;;;;33.20;26.08;;;5.70;99.90;;;;;;6189907;23;20388;-85
2023/04/08 00:06:02;;;;;;;29.25;25.48;;;5.80;99.90;;;;;;6189768;23;20405;-87
2023/04/08 00:08:27;;;;;;;29.92;25.85;;;5.90;99.90;;;;;;6190250;23;20346;-86
2023/04/08 00:10:54;;;;;;;30.20;25.35;;;6.00;99.90;;;;;;6190134;23;20350;-85
2023/04/08 00:13:19;;;;;;;34.53;27.42;;;5.80;99.90;;;;;;6165160;23;20373;-85
2023/04/08 00:15:45;;;;;;;34.97;28.73;;;5.80;99.90;;;;;;6215884;23;20346;-86
2023/04/08 00:18:12;;;;;;;31.52;26.80;;;5.80;99.90;;;;;;6214485;23;20793;-85
2023/04/08 00:20:38;;;;;;;35.78;29.23;;;5.90;99.90;;;;;;6189399;23;20417;-86
2023/04/08 00:23:04;;;;;;;36.28;29.25;;;5.80;99.90;;;;;;6188681;23;20810;-85
2023/04/08 00:25:32;;;;;;;40.97;31.80;;;5.90;99.90;;;;;;6214903;23;20428;-85
2023/04/08 00:27:58;;;;;;;40.95;32.03;;;5.80;99.90;;;;;;6214326;23;20650;-85
2023/04/08 00:30:26;;;;;;;43.00;33.83;;;5.70;99.90;;;;;;6187579;23;20358;-85
2023/04/08 00:32:54;;;;;;;49.00;35.60;;;5.70;99.90;;;;;;6186641;23;20435;-85
2023/04/08 00:35:20;;;;;;;51.17;36.83;;;5.70;99.90;;;;;;6186819;23;20350;-84
2023/04/08 00:37:51;;;;;;;49.72;35.67;;;5.60;99.90;;;;;;6184705;23;20809;-85
2023/04/08 00:40:17;;;;;;;47.85;34.72;;;5.70;99.90;;;;;;6185309;23;20676;-85
2023/04/08 00:42:45;;;;;;;50.15;36.05;;;5.70;99.90;;;;;;6186697;23;20430;-85
2023/04/08 00:45:15;;;;;;;52.60;37.27;;;5.70;99.90;;;;;;6187260;23;20341;-85
2023/04/08 00:47:51;;;;;;;51.90;36.80;;;5.60;99.90;;;;;;6187469;23;20369;-85
2023/04/08 00:50:21;;;;;;;51.58;35.92;;;5.60;99.90;;;;;;6187985;23;20674;-84
2023/04/08 00:52:47;;;;;;;51.47;35.85;;;5.80;99.90;;;;;;6214244;23;20338;-85
2023/04/08 00:55:12;;;;;;;53.67;35.85;;;5.70;99.90;;;;;;6186936;23;20374;-84
2023/04/08 00:57:38;;;;;;;49.47;34.75;;;5.80;99.90;;;;;;6186904;23;20813;-85
2023/04/08 01:00:05;;;;;;;48.47;34.92;;;5.70;99.90;;;;;;6187660;23;20416;-85
2023/04/08 01:02:35;;;;;;;51.70;35.13;;;5.90;99.90;;;;;;6187596;23;20346;-85
2023/04/08 01:05:17;;;;;;;51.63;35.15;;;5.80;99.90;;;;;;6188145;23;20381;-85
2023/04/08 01:07:48;;;;;;;51.92;35.45;;;5.60;99.90;;;;;;6187402;23;20365;-85
2023/04/08 01:10:25;;;;;;;51.33;35.00;;;5.70;99.90;;;;;;6213398;23;20346;-84
2023/04/08 01:13:14;;;;;;;49.13;34.97;;;5.70;99.90;;;;;;6188420;23;20342;-85
2023/04/08 01:15:45;;;;;;;47.97;33.38;;;5.80;99.90;;;;;;6184457;23;20362;-84
2023/04/08 01:18:14;;;;;;;50.55;34.28;;;5.80;99.90;;;;;;6186438;23;20667;-84
2023/04/08 01:20:45;;;;;;;50.13;35.05;;;5.70;99.90;;;;;;6186324;23;20358;-84
2023/04/08 01:23:32;;;;;;;50.38;34.17;;;5.70;99.90;;;;;;6184747;23;20361;-85
2023/04/08 01:26:01;;;;;;;52.83;35.33;;;5.80;99.90;;;;;;6185602;23;20346;-85
2023/04/08 01:28:32;;;;;;;51.00;34.53;;;5.70;99.90;;;;;;6187016;23;20989;-85
2023/04/08 01:31:07;;;;;;;50.93;34.70;;;5.80;99.90;;;;;;6187544;23;20377;-84
2023/04/08 01:33:36;;;;;;;53.08;35.55;;;5.70;99.90;;;;;;6187049;23;20849;-85
2023/04/08 01:36:03;;;;;;;50.25;34.60;;;5.60;99.90;;;;;;6187507;23;20392;-85
2023/04/08 01:38:30;;;;;;;50.70;34.67;;;5.50;99.90;;;;;;6212552;23;20374;-85
2023/04/08 01:40:59;;;;;;;47.67;34.17;;;5.60;99.90;;;;;;6214327;23;20374;-85
2023/04/08 01:43:26;;;;;;;49.30;34.05;;;5.60;99.90;;;;;;6187113;23;20496;-84
2023/04/08 01:45:56;;;;;;;49.05;33.67;;;5.60;99.90;;;;;;6187961;23;20350;-85
2023/04/08 01:48:24;;;;;;;48.45;33.40;;;5.60;99.90;;;;;;6189057;23;20346;-84
2023/04/08 01:50:52;;;;;;;51.45;34.60;;;5.50;99.90;;;;;;6217238;23;20346;-85
2023/04/08 01:53:18;;;;;;;51.63;34.95;;;5.50;99.90;;;;;;6190080;23;20393;-84
2023/04/08 01:55:55;;;;;;;50.22;34.00;;;5.50;99.90;;;;;;6215910;23;20434;-85
2023/04/08 01:58:21;;;;;;;47.33;32.58;;;5.60;99.90;;;;;;6189344;23;20353;-85
2023/04/08 02:00:51;;;;;;;47.05;33.35;;;5.60;99.90;;;;;;6215693;23;20798;-85
2023/04/08 02:03:21;;;;;;;50.05;34.15;;;5.60;99.90;;;;;;6189236;23;20488;-85
2023/04/08 02:05:50;;;;;;;48.30;33.60;;;5.70;99.90;;;;;;6189315;23;20426;-84
2023/04/08 02:08:15;;;;;;;47.00;33.78;;;5.60;99.90;;;;;;6189623;23;20356;-85
2023/04/08 02:10:47;;;;;;;45.28;33.30;;;5.60;99.90;;;;;;6189812;23;20346;-85
2023/04/08 02:13:15;;;;;;;45.83;33.60;;;5.60;99.90;;;;;;6189799;23;20432;-85
2023/04/08 02:15:50;;;;;;;46.67;33.70;;;5.70;99.90;;;;;;6190577;23;20350;-85
2023/04/08 02:18:24;;;;;;;47.65;34.38;;;5.70;99.90;;;;;;6190997;23;20353;-84
2023/04/08 02:20:56;;;;;;;48.97;34.03;;;5.70;99.90;;;;;;6240717;22;20429;-84
2023/04/08 02:23:26;;;;;;;47.47;33.33;;;5.60;99.90;;;;;;6210870;23;20444;-85
2023/04/08 02:25:55;;;;;;;47.95;34.35;;;5.70;99.90;;;;;;6204492;22;20337;-84
2023/04/08 02:28:22;;;;;;;48.50;33.47;;;5.60;99.90;;;;;;6241008;22;20421;-84
2023/04/08 02:30:51;;;;;;;49.23;34.60;;;5.60;99.90;;;;;;6207286;23;20354;-85
2023/04/08 02:33:24;;;;;;;50.72;34.22;;;5.60;99.90;;;;;;6220143;23;20366;-85
2023/04/08 02:35:53;;;;;;;47.10;33.00;;;5.70;99.90;;;;;;6192411;23;20425;-85
2023/04/08 02:38:22;;;;;;;44.97;32.07;;;5.80;99.90;;;;;;6191925;23;20354;-85
2023/04/08 02:40:54;;;;;;;46.90;34.08;;;5.70;99.90;;;;;;6189576;23;20433;-85
2023/04/08 02:43:37;;;;;;;44.05;33.65;;;5.70;99.90;;;;;;6215515;23;20354;-85
2023/04/08 02:46:07;;;;;;;46.65;33.08;;;5.80;99.90;;;;;;6188722;23;20338;-85
2023/04/08 02:48:33;;;;;;;48.17;34.20;;;5.70;99.90;;;;;;6188642;23;20357;-85
2023/04/08 02:50:58;;;;;;;41.55;31.73;;;5.70;99.90;;;;;;6188932;23;20354;-84
2023/04/08 02:53:24;;;;;;;47.53;33.53;;;5.80;99.90;;;;;;6188669;23;20833;-85
2023/04/08 02:55:53;;;;;;;45.43;33.40;;;5.70;99.90;;;;;;6189604;23;20354;-85
2023/04/08 02:58:21;;;;;;;45.00;32.95;;;5.80;99.90;;;;;;6189007;23;20832;-85
2023/04/08 03:00:47;;;;;;;47.03;33.67;;;5.70;99.90;;;;;;6189721;23;20713;-85
2023/04/08 03:03:12;;;;;;;47.78;33.88;;;5.70;99.90;;;;;;6191821;23;20407;-85
2023/04/08 03:05:41;;;;;;;48.80;34.47;;;5.80;99.90;;;;;;6234065;23;20354;-84
2023/04/08 03:08:11;;;;;;;50.85;34.03;;;5.80;99.90;;;;;;6208169;23;20469;-85
2023/04/08 03:10:40;;;;;;;49.15;34.40;;;5.80;99.90;;;;;;6199266;23;20354;-85
2023/04/08 03:13:10;;;;;;;44.38;32.80;;;5.70;99.90;;;;;;6190157;23;20353;-85
2023/04/08 03:15:46;;;;;;;45.55;33.28;;;5.70;99.90;;;;;;6215426;23;20338;-85
2023/04/08 03:18:12;;;;;;;46.55;32.83;;;5.80;99.90;;;;;;6213726;23;20350;-85
2023/04/08 03:20:38;;;;;;;49.87;34.53;;;5.80;99.90;;;;;;6214838;23;20374;-85
2023/04/08 03:23:15;;;;;;;48.73;33.83;;;5.70;99.90;;;;;;6214382;23;20385;-85
2023/04/08 03:25:41;;;;;;;54.00;35.80;;;5.70;99.90;;;;;;6188559;23;20386;-84
2023/04/08 03:28:07;;;;;;;52.57;35.67;;;5.50;99.90;;;;;;6188771;23;20354;-84
2023/04/08 03:30:32;;;;;;;52.88;35.95;;;5.50;99.90;;;;;;6188562;23;20666;-84
2023/04/08 03:32:58;;;;;;;54.55;36.13;;;5.60;99.90;;;;;;6188701;23;20361;-85
2023/04/08 03:35:24;;;;;;;50.90;35.87;;;5.60;99.90;;;;;;6215532;23;20342;-85
2023/04/08 03:37:54;;;;;;;55.10;36.40;;;5.70;99.90;;;;;;6214758;23;20350;-85
2023/04/08 03:40:20;;;;;;;57.28;37.17;;;5.60;99.90;;;;;;6188340;23;20670;-85
2023/04/08 03:42:46;;;;;;;55.90;36.83;;;5.50;99.90;;;;;;6188663;23;20369;-85
2023/04/08 03:45:11;;;;;;;56.72;36.83;;;5.60;99.90;;;;;;6188710;23;20443;-85
2023/04/08 03:47:37;;;;;;;55.87;37.03;;;5.70;99.90;;;;;;6188986;23;20346;-85
2023/04/08 03:50:03;;;;;;;56.67;37.30;;;5.60;99.90;;;;;;6187947;23;20404;-85
2023/04/08 03:52:31;;;;;;;52.97;36.25;;;5.60;99.90;;;;;;6189041;23;20433;-85
2023/04/08 03:55:00;;;;;;;56.30;37.13;;;5.70;99.90;;;;;;6188447;23;20864;-85
2023/04/08 03:57:28;;;;;;;60.22;37.63;;;5.60;99.90;;;;;;6214746;23;20342;-85
2023/04/08 03:59:59;;;;;;;52.57;35.20;;;5.60;99.90;;;;;;6188431;23;20366;-85
2023/04/08 04:02:28;;;;;;;56.30;36.88;;;5.70;99.90;;;;;;6187843;23;20350;-85
2023/04/08 04:04:54;;;;;;;54.30;35.40;;;5.50;99.90;;;;;;6188239;23;20385;-85
2023/04/08 04:07:22;;;;;;;50.87;34.00;;;5.60;99.90;;;;;;6188100;23;20392;-85
2023/04/08 04:09:53;;;;;;;54.30;35.10;;;5.60;99.90;;;;;;6187479;23;20346;-85
2023/04/08 04:12:18;;;;;;;51.90;34.55;;;5.60;99.90;;;;;;6188361;23;20425;-85
2023/04/08 04:14:47;;;;;;;51.70;34.93;;;5.60;99.90;;;;;;6214633;23;20401;-85
2023/04/08 04:17:12;;;;;;;49.72;32.88;;;5.50;99.90;;;;;;6188447;23;20429;-83
2023/04/08 04:19:43;;;;;;;51.05;33.95;;;5.60;99.90;;;;;;6187741;23;20377;-86
2023/04/08 04:22:08;;;;;;;47.08;32.15;;;5.60;99.90;;;;;;6187586;23;20346;-86
2023/04/08 04:24:39;;;;;;;50.42;32.13;;;5.50;99.90;;;;;;6187456;23;20429;-86
2023/04/08 04:27:05;;;;;;;48.95;32.80;;;5.50;99.90;;;;;;6188195;23;20774;-86
2023/04/08 04:29:31;;;;;;;51.15;31.60;;;5.50;99.90;;;;;;6187603;23;20360;-86
2023/04/08 04:31:57;;;;;;;47.85;32.47;;;5.50;99.90;;;;;;6187804;23;20353;-86
2023/04/08 04:34:25;;;;;;;51.03;32.47;;;5.50;99.90;;;;;;6187293;23;20370;-86
2023/04/08 04:37:00;;;;;;;53.17;33.60;;;5.50;99.90;;;;;;6187094;23;20353;-86
2023/04/08 04:39:29;;;;;;;53.53;33.72;;;5.50;99.90;;;;;;6214649;23;20346;-86
2023/04/08 04:42:04;;;;;;;56.50;34.60;;;5.40;99.90;;;;;;6187819;23;20365;-84
2023/04/08 04:44:33;;;;;;;50.70;33.05;;;5.50;99.90;;;;;;6188464;23;20532;-86
2023/04/08 04:47:04;;;;;;;49.15;31.83;;;5.50;99.90;;;;;;6186945;23;20350;-86
2023/04/08 04:49:33;;;;;;;50.33;33.42;;;5.60;99.90;;;;;;6187590;23;20427;-86
2023/04/08 04:52:01;;;;;;;46.42;32.53;;;5.50;99.90;;;;;;6187592;23;20350;-86
2023/04/08 04:54:28;;;;;;;48.90;33.25;;;5.60;99.90;;;;;;6187891;23;20432;-86
2023/04/08 04:57:06;;;;;;;47.33;32.37;;;5.60;99.90;;;;;;6188712;23;20346;-87
2023/04/08 04:59:35;;;;;;;50.63;33.47;;;5.60;99.90;;;;;;6187847;23;20408;-86
2023/04/08 05:02:06;;;;;;;48.83;31.95;;;5.50;99.90;;;;;;6188647;23;20349;-86
2023/04/08 05:04:34;;;;;;;49.08;32.40;;;5.60;99.90;;;;;;6190065;23;20433;-86
2023/04/08 05:07:05;;;;;;;46.20;31.50;;;5.70;99.90;;;;;;6189281;23;20354;-86
2023/04/08 05:09:31;;;;;;;47.00;30.75;;;5.80;99.90;;;;;;6214721;23;20356;-86
2023/04/08 05:11:59;;;;;;;45.75;30.38;;;5.70;99.90;;;;;;6187761;23;20433;-86
2023/04/08 05:14:27;;;;;;;49.07;32.27;;;5.70;99.90;;;;;;6188828;23;20750;-85
2023/04/08 05:16:56;;;;;;;59.53;35.22;;;5.60;99.90;;;;;;6189441;23;20349;-86
2023/04/08 05:19:25;;;;;;;48.78;31.55;;;5.50;99.90;;;;;;6188340;23;20345;-85
2023/04/08 05:21:53;;;;;;;48.72;31.45;;;5.50;99.90;;;;;;6189770;23;20873;-85
2023/04/08 05:24:21;;;;;;;51.03;32.33;;;5.60;99.90;;;;;;6218312;23;20346;-86
2023/04/08 05:26:51;;;;;;;49.95;31.52;;;5.70;99.90;;;;;;6190479;23;20848;-86
2023/04/08 05:29:20;;;;;;;49.03;31.88;;;5.80;99.90;;;;;;6193074;23;20350;-87
2023/04/08 05:31:46;;;;;;;45.93;30.77;;;5.70;99.90;;;;;;6190214;23;20349;-86
2023/04/08 05:34:12;;;;;;;52.10;32.10;;;5.80;99.90;;;;;;6189334;23;20751;-87
2023/04/08 05:36:41;;;;;;;49.07;32.20;;;5.80;99.90;;;;;;6190392;23;20361;-86
2023/04/08 05:39:06;;;;;;;51.78;32.70;;;5.70;99.90;;;;;;6189617;23;20691;-86
2023/04/08 05:41:35;;;;;;;46.60;32.20;;;5.70;99.90;;;;;;6189908;23;20482;-87
2023/04/08 05:44:06;;;;;;;47.55;31.60;;;5.80;99.90;;;;;;6189331;23;20455;-86
2023/04/08 05:46:37;;;;;;;50.58;31.73;;;5.80;99.90;;;;;;6189778;23;20354;-86
2023/04/08 05:49:07;;;;;;;51.17;32.55;;;5.80;99.90;;;;;;6189617;23;20429;-87
2023/04/08 05:51:35;;;;;;;46.65;31.40;;;5.80;99.90;;;;;;6189795;23;20347;-86
2023/04/08 05:54:02;;;;;;;45.13;30.27;;;5.80;99.90;;;;;;6190075;23;20460;-86
2023/04/08 05:56:31;;;;;;;45.97;31.15;;;5.80;99.90;;;;;;6192231;23;20353;-87
2023/04/08 05:59:00;;;;;;;44.75;30.67;;;5.80;99.90;;;;;;6189963;23;20356;-87
2023/04/08 06:01:29;;;;;;;47.70;30.52;;;5.90;99.90;;;;;;6190811;23;20346;-86
2023/04/08 06:03:55;;;;;;;44.47;29.53;;;6.00;99.90;;;;;;6191636;23;20445;-87
2023/04/08 06:06:21;;;;;;;43.05;29.23;;;6.00;99.90;;;;;;6190536;23;20350;-87
2023/04/08 06:08:50;;;;;;;42.90;29.73;;;6.10;99.90;;;;;;6190240;23;20860;-87
2023/04/08 06:11:21;;;;;;;46.03;29.05;;;6.00;99.90;;;;;;6217112;23;20853;-87
2023/04/08 06:13:47;;;;;;;41.17;27.13;;;6.00;99.90;;;;;;6190532;23;20440;-86
2023/04/08 06:16:21;;;;;;;39.50;27.43;;;6.20;99.90;;;;;;6190467;23;20350;-86
2023/04/08 06:18:56;;;;;;;38.45;27.27;;;6.30;99.90;;;;;;6190720;23;20346;-86
2023/04/08 06:21:27;;;;;;;37.95;26.25;;;6.20;99.90;;;;;;6216318;23;20709;-87
2023/04/08 06:23:56;;;;;;;38.22;27.40;;;6.40;99.90;;;;;;6190432;23;20488;-85
2023/04/08 06:26:24;;;;;;;41.70;27.10;;;6.20;99.90;;;;;;6191722;23;20342;-85
2023/04/08 06:28:52;;;;;;;42.05;27.60;;;6.00;99.90;;;;;;6191428;23;20354;-86
2023/04/08 06:31:37;;;;;;;36.83;27.33;;;6.20;99.90;;;;;;6190828;23;21204;-84
2023/04/08 06:34:08;;;;;;;36.90;26.52;;;6.40;99.90;;;;;;6190882;23;20824;-85
2023/04/08 06:36:39;;;;;;;38.08;26.42;;;6.50;99.90;;;;;;6191226;23;20670;-85
2023/04/08 06:39:20;;;;;;;37.60;26.85;;;6.50;99.90;;;;;;6218387;23;20357;-86
2023/04/08 06:41:48;;;;;;;33.78;25.08;;;6.50;99.90;;;;;;6216817;23;20346;-85
2023/04/08 06:44:37;;;;;;;35.65;25.63;;;6.40;99.90;;;;;;6217979;23;20376;-86
2023/04/08 06:47:08;;;;;;;36.43;26.90;;;6.40;99.90;;;;;;6191549;23;20354;-85
2023/04/08 06:49:35;;;;;;;37.20;27.60;;;6.50;99.90;;;;;;6189721;23;20369;-85
2023/04/08 06:52:01;;;;;;;36.70;27.20;;;6.40;99.90;;;;;;6190849;23;20393;-85
2023/04/08 06:54:26;;;;;;;41.75;29.38;;;6.40;99.90;;;;;;6190190;23;20694;-85
2023/04/08 06:56:58;;;;;;;40.90;28.27;;;6.10;99.90;;;;;;6190569;23;20354;-85
2023/04/08 06:59:31;;;;;;;35.00;27.25;;;6.30;99.90;;;;;;6190348;23;20377;-85
2023/04/08 07:02:20;;;;;;;37.17;27.25;;;6.40;99.90;;;;;;6190479;23;20408;-86
2023/04/08 07:05:29;;;;;;;36.83;26.75;;;6.50;99.90;;;;;;6191327;23;20338;-86
2023/04/08 07:07:57;;;;;;;40.13;28.30;;;6.60;99.90;;;;;;6175483;23;20401;-85
2023/04/08 07:10:35;;;;;;;;;;;;;;;;;;;;;
2023/04/08 07:13:04;;;;;;;37.20;26.90;;;6.70;99.90;;;;;;6218605;23;20445;-86
2023/04/08 07:15:39;;;;;;;39.17;27.10;;;6.70;99.90;;;;;;6194644;23;20429;-87
2023/04/08 07:18:05;;;;;;;37.10;27.38;;;6.90;99.90;;;;;;6193814;23;20350;-86
2023/04/08 07:20:30;;;;;;;38.03;27.90;;;6.80;99.90;;;;;;6193281;23;20354;-86
2023/04/08 07:23:19;;;;;;;39.10;29.03;;;6.60;99.90;;;;;;6192470;23;20381;-86
2023/04/08 07:25:48;;;;;;;38.65;28.75;;;6.70;99.90;;;;;;6217045;23;20702;-86
2023/04/08 07:28:17;;;;;;;40.15;29.25;;;6.80;99.90;;;;;;6190161;23;20728;-87
2023/04/08 07:30:45;;;;;;;41.03;28.95;;;6.60;99.90;;;;;;6217705;23;20812;-86
2023/04/08 07:33:11;;;;;;;38.47;28.05;;;6.70;99.90;;;;;;6192859;23;20350;-85
2023/04/08 07:35:40;;;;;;;41.93;28.30;;;6.90;99.90;;;;;;6191109;23;20353;-86
2023/04/08 07:38:29;;;;;;;37.75;28.38;;;6.90;99.90;;;;;;6190394;23;20358;-86
2023/04/08 07:40:55;;;;;;;40.42;28.40;;;7.00;99.90;;;;;;6218816;23;20374;-85
2023/04/08 07:43:20;;;;;;;42.07;28.97;;;7.00;99.90;;;;;;6191702;23;20424;-86
2023/04/08 07:45:56;;;;;;;44.00;30.20;;;6.90;99.90;;;;;;6189924;23;20350;-86
2023/04/08 07:48:25;;;;;;;44.03;30.15;;;6.70;99.90;;;;;;6189200;23;20361;-87
2023/04/08 07:50:55;;;;;;;41.00;29.23;;;6.90;99.90;;;;;;6190866;23;20417;-87
2023/04/08 07:53:47;;;;;;;39.70;29.02;;;6.90;99.90;;;;;;6190437;23;20362;-87
2023/04/08 07:56:17;;;;;;;42.53;30.20;;;7.10;99.90;;;;;;6190766;23;20408;-86
2023/04/08 07:58:56;;;;;;;40.80;30.50;;;6.90;99.90;;;;;;6189084;23;20346;-86
2023/04/08 08:01:29;;;;;;;42.22;30.55;;;6.90;99.90;;;;;;6189238;23;20358;-86
2023/04/08 08:04:00;;;;;;;42.37;30.00;;;7.00;99.90;;;;;;6189856;23;20357;-87
2023/04/08 08:06:28;;;;;;;41.50;29.98;;;7.20;99.90;;;;;;6190462;23;20396;-87
2023/04/08 08:08:54;;;;;;;38.58;29.00;;;7.40;99.90;;;;;;6190716;23;20362;-87
2023/04/08 08:11:38;;;;;;;37.67;29.05;;;7.70;99.90;;;;;;6203311;23;20342;-86
2023/04/08 08:14:06;;;;;;;40.75;28.70;;;7.80;99.90;;;;;;6200912;23;20380;-86
2023/04/08 08:16:35;;;;;;;38.25;28.55;;;7.70;99.90;;;;;;6192760;23;20801;-86
2023/04/08 08:19:07;;;;;;;39.00;27.88;;;7.70;99.90;;;;;;6217242;23;20353;-86
2023/04/08 08:21:42;;;;;;;41.30;29.67;;;7.60;99.90;;;;;;6189846;23;20662;-86
2023/04/08 08:27:05;;;;;;;40.40;29.58;;;7.40;99.90;;;;;;6216659;23;20352;-86
2023/04/08 08:29:31;;;;;;;41.00;30.60;;;7.50;99.90;;;;;;6189460;23;21050;-86
2023/04/08 08:31:57;;;;;;;40.50;28.70;;;7.50;99.90;;;;;;6189193;23;20478;-86
2023/04/08 08:34:22;;;;;;;42.77;30.50;;;7.40;99.90;;;;;;6189320;23;20509;-86
2023/04/08 08:36:54;;;;;;;43.05;31.20;;;7.00;99.90;;;;;;6189751;23;20479;-87
2023/04/08 08:39:31;;;;;;;39.65;29.35;;;7.10;99.90;;;;;;6189466;23;20358;-87
2023/04/08 08:41:59;;;;;;;40.50;29.67;;;7.50;99.90;;;;;;6215703;23;20339;-87
2023/04/08 08:44:29;;;;;;;40.53;29.87;;;7.50;99.90;;;;;;6187965;23;20385;-86
2023/04/08 08:46:55;;;;;;;43.60;31.88;;;7.30;99.90;;;;;;6216341;23;20418;-86
2023/04/08 08:49:31;;;;;;;40.17;29.42;;;7.40;99.90;;;;;;6188199;23;20357;-87
2023/04/08 08:52:04;;;;;;;39.90;30.00;;;7.40;99.90;;;;;;6189690;23;20836;-87
2023/04/08 08:54:32;;;;;;;38.45;29.05;;;7.50;99.90;;;;;;6189329;23;20361;-87
2023/04/08 08:56:58;;;;;;;37.15;28.55;;;7.90;99.90;;;;;;6189783;23;20381;-86
2023/04/08 08:59:34;;;;;;;34.80;27.58;;;8.00;99.90;;;;;;6190360;23;20345;-86
2023/04/08 09:02:03;;;;;;;38.80;27.08;;;8.30;99.90;;;;;;6189832;23;20697;-86
2023/04/08 09:04:35;;;;;;;33.75;25.05;;;8.30;99.90;;;;;;6190420;23;20410;-86
2023/04/08 09:07:39;;;;;;;30.35;24.20;;;8.70;99.90;;;;;;6190138;23;20346;-86
2023/04/08 09:10:09;;;;;;;31.45;24.48;;;8.90;99.90;;;;;;6158043;23;20365;-86
2023/04/08 09:12:51;;;;;;;32.93;25.03;;;8.80;99.90;;;;;;6191197;23;20354;-86
2023/04/08 09:15:17;;;;;;;32.85;25.42;;;8.90;99.90;;;;;;6189534;23;20373;-85
2023/04/08 09:17:45;;;;;;;35.65;26.48;;;8.90;99.90;;;;;;6217200;23;20350;-86
2023/04/08 09:20:15;;;;;;;32.15;25.67;;;8.80;99.90;;;;;;6189325;23;20357;-86
2023/04/08 09:22:52;;;;;;;34.30;25.77;;;8.80;99.90;;;;;;6215990;23;20334;-86
2023/04/08 09:25:24;;;;;;;33.33;25.80;;;8.90;99.90;;;;;;6189220;23;20357;-86
2023/04/08 09:27:53;;;;;;;35.00;26.30;;;8.90;99.90;;;;;;6189609;23;20821;-86
2023/04/08 09:30:22;;;;;;;33.67;25.77;;;8.70;99.90;;;;;;6188557;23;20437;-86
2023/04/08 09:32:52;;;;;;;36.88;27.27;;;8.70;99.90;;;;;;6189296;23;20353;-85
2023/04/08 09:35:19;;;;;;;37.13;27.98;;;8.40;99.90;;;;;;6189154;23;20370;-86
2023/04/08 09:37:48;;;;;;;36.70;27.58;;;8.30;99.90;;;;;;6189801;23;20378;-85
2023/04/08 09:40:15;;;;;;;34.17;26.33;;;8.40;99.90;;;;;;6188632;23;20373;-85
2023/04/08 09:42:47;;;;;;;34.67;26.80;;;8.70;99.90;;;;;;6189991;23;20357;-86
2023/04/08 09:45:25;;;;;;;;;;;;;;;;;;;;;
2023/04/08 09:47:56;;;;;;;33.55;25.35;;;8.90;99.90;;;;;;6216328;23;20429;-86
2023/04/08 09:50:26;;;;;;;34.03;25.45;;;8.90;99.90;;;;;;6216496;23;20346;-86
2023/04/08 09:53:01;;;;;;;34.50;25.87;;;9.00;99.90;;;;;;6221486;23;20342;-85
2023/04/08 09:55:52;;;;;;;33.88;25.20;;;9.10;99.90;;;;;;6214373;23;20408;-86
2023/04/08 09:58:26;;;;;;;33.50;25.80;;;9.20;99.90;;;;;;6213009;23;20358;-85
2023/04/08 10:01:00;;;;;;;31.42;24.17;;;9.30;99.90;;;;;;6214400;23;20354;-86
2023/04/08 10:03:38;;;;;;;36.50;27.13;;;9.40;99.90;;;;;;6214714;22;20366;-83
2023/04/08 10:06:11;;;;;;;32.85;25.27;;;8.90;99.90;;;;;;6191211;23;20374;-86
2023/04/08 10:08:37;;;;;;;33.00;25.83;;;9.00;99.90;;;;;;6218094;23;20378;-86
2023/04/08 10:11:06;;;;;;;32.05;25.90;;;9.20;99.90;;;;;;6190736;23;20349;-86
2023/04/08 10:13:37;;;;;;;33.63;25.52;;;9.50;99.90;;;;;;6190284;23;20365;-86
2023/04/08 10:16:21;;;;;;;34.00;25.63;;;9.60;99.90;;;;;;6215160;23;20681;-86
2023/04/08 10:18:54;;;;;;;34.88;26.67;;;9.50;99.90;;;;;;6216798;23;20381;-85
2023/04/08 10:21:37;;;;;;;34.42;26.23;;;9.40;99.90;;;;;;6189571;23;20354;-86
2023/04/08 10:24:06;;;;;;;33.58;26.30;;;9.10;99.90;;;;;;6191074;23;20343;-86
2023/04/08 10:26:33;;;;;;;34.73;26.00;;;9.10;99.90;;;;;;6190232;23;20350;-86
2023/04/08 10:29:17;;;;;;;31.60;24.55;;;9.50;99.90;;;;;;6190848;23;20385;-86
2023/04/08 10:31:50;;;;;;;31.45;24.92;;;9.90;99.90;;;;;;6189951;23;20369;-86
2023/04/08 10:34:26;;;;;;;32.50;25.70;;;9.70;99.90;;;;;;6189057;23;20845;-85
2023/04/08 10:37:02;;;;;;;31.23;24.42;;;9.90;99.90;;;;;;6189855;23;20832;-84
2023/04/08 10:39:46;;;;;;;30.65;24.08;;;10.00;99.90;;;;;;6190658;23;20658;-85
2023/04/08 10:42:22;;;;;;;31.58;25.00;;;10.00;99.90;;;;;;6190474;23;20678;-85
2023/04/08 10:44:59;;;;;;;31.50;24.00;;;10.20;99.90;;;;;;6187796;23;20362;-85
2023/04/08 10:47:36;;;;;;;32.55;24.25;;;10.40;99.90;;;;;;6216547;23;20338;-84
2023/04/08 10:50:14;;;;;;;31.02;24.23;;;10.30;99.90;;;;;;6191562;23;20357;-85
2023/04/08 10:52:52;;;;;;;30.73;25.02;;;10.40;99.90;;;;;;6189577;23;20437;-84
2023/04/08 10:55:30;;;;;;;30.83;24.02;;;9.70;99.90;;;;;;6189312;23;20370;-84
2023/04/08 10:58:12;;;;;;;29.90;22.88;;;10.00;99.90;;;;;;6189639;23;20357;-86
2023/04/08 11:00:51;;;;;;;29.58;23.30;;;10.40;99.90;;;;;;6215065;23;20453;-86
2023/04/08 11:03:21;;;;;;;27.20;21.52;;;10.50;99.90;;;;;;6189797;23;20338;-85
2023/04/08 11:06:01;;;;;;;29.83;23.50;;;10.60;99.90;;;;;;6189351;23;20350;-85
2023/04/08 11:08:31;;;;;;;31.27;23.55;;;10.20;99.90;;;;;;6189559;23;20343;-85
2023/04/08 11:11:12;;;;;;;29.42;22.60;;;10.10;99.90;;;;;;6189432;23;20354;-86
2023/04/08 11:13:45;;;;;;;28.48;22.48;;;10.00;99.90;;;;;;6216298;23;20358;-86
2023/04/08 11:16:20;;;;;;;27.80;21.98;;;10.20;99.90;;;;;;6189090;23;20353;-85
2023/04/08 11:19:02;;;;;;;;;;;;;;;;;;;;;
2023/04/08 11:21:33;;;;;;;27.58;21.83;;;10.50;99.90;;;;;;6216194;23;20427;-85
2023/04/08 11:23:59;;;;;;;27.02;21.13;;;10.60;99.90;;;;;;6190041;23;20447;-85
2023/04/08 11:26:29;;;;;;;26.27;20.67;;;10.70;99.90;;;;;;6189887;23;20373;-85
2023/04/08 11:28:59;;;;;;;27.00;21.23;;;10.50;99.90;;;;;;6216209;23;20346;-85
2023/04/08 11:31:35;;;;;;;29.23;21.40;;;10.60;99.90;;;;;;6189914;23;20346;-85
2023/04/08 11:34:03;;;;;;;28.88;21.80;;;10.60;99.90;;;;;;6189593;23;20393;-86
2023/04/08 11:36:39;;;;;;;24.95;20.17;;;10.40;99.90;;;;;;6217653;23;20349;-86
2023/04/08 11:39:23;;;;;;;26.50;20.40;;;10.80;99.90;;;;;;6190471;23;20798;-85
2023/04/08 11:41:57;;;;;;;25.48;19.25;;;10.90;99.90;;;;;;6188379;23;20378;-86
2023/04/08 11:44:32;;;;;;;25.27;19.92;;;11.60;99.90;;;;;;6189274;23;20643;-86
2023/04/08 11:47:01;;;;;;;27.57;20.60;;;11.50;99.90;;;;;;6188724;23;20357;-85
2023/04/08 11:49:27;;;;;;;24.52;19.30;;;11.40;99.90;;;;;;6189309;23;20350;-86
2023/04/08 11:52:01;;;;;;;25.92;20.13;;;11.50;99.90;;;;;;6213529;23;20361;-86
2023/04/08 11:54:44;;;;;;;27.52;20.35;;;11.40;99.90;;;;;;6188537;23;20401;-86
2023/04/08 11:57:10;;;;;;;26.85;20.13;;;11.60;99.90;;;;;;6189240;23;20349;-86
2023/04/08 11:59:47;;;;;;;24.33;18.90;;;11.80;99.90;;;;;;6188941;23;20358;-86
2023/04/08 12:02:13;;;;;;;24.60;18.40;;;11.90;99.90;;;;;;6188933;23;20429;-85
2023/04/08 12:04:42;;;;;;;23.95;19.25;;;11.80;99.90;;;;;;6215333;23;20349;-86
2023/04/08 12:07:19;;;;;;;;;;;;;;;;;;;;;
2023/04/08 12:09:47;;;;;;;24.73;18.95;;;11.40;99.90;;;;;;6215144;23;20428;-85
2023/04/08 12:12:13;;;;;;;25.03;18.93;;;11.50;99.90;;;;;;6189652;23;20346;-85
2023/04/08 12:14:41;;;;;;;25.45;18.20;;;11.60;99.90;;;;;;6189547;23;20442;-85
2023/04/08 12:17:15;;;;;;;21.63;17.88;;;11.60;99.90;;;;;;6188416;23;20411;-85
2023/04/08 12:19:42;;;;;;;21.67;18.38;;;12.00;99.90;;;;;;6216085;23;20338;-86
2023/04/08 12:22:08;;;;;;;25.27;18.63;;;12.20;99.90;;;;;;6192263;23;20345;-85
2023/04/08 12:24:40;;;;;;;22.98;18.73;;;11.90;99.90;;;;;;6191373;23;20401;-85
2023/04/08 12:27:08;;;;;;;24.58;18.80;;;11.90;99.90;;;;;;6189254;23;20921;-85
2023/04/08 12:29:53;;;;;;;;;;;;;;;;;;;;;
2023/04/08 12:32:28;;;;;;;22.77;18.50;;;12.20;99.90;;;;;;6215034;23;20413;-85
2023/04/08 12:35:04;;;;;;;21.33;17.75;;;12.30;99.90;;;;;;6187940;23;20370;-85
2023/04/08 12:37:32;;;;;;;22.83;18.50;;;12.40;99.90;;;;;;6216114;23;20380;-84
2023/04/08 12:40:08;;;;;;;22.88;18.42;;;12.30;99.90;;;;;;6189500;23;20892;-85
2023/04/08 12:42:33;;;;;;;23.90;18.13;;;12.10;99.90;;;;;;6220086;23;20345;-86
2023/04/08 12:45:05;;;;;;;22.40;16.98;;;12.60;99.90;;;;;;6188830;23;20426;-86
2023/04/08 12:47:34;;;;;;;20.08;16.70;;;13.00;99.90;;;;;;6188077;23;20354;-86
2023/04/08 12:50:05;;;;;;;21.52;18.05;;;13.10;99.90;;;;;;6187537;23;20358;-85
2023/04/08 12:52:50;;;;;;;20.90;17.10;;;12.70;99.90;;;;;;6188421;23;20358;-86
2023/04/08 12:55:23;;;;;;;22.67;18.75;;;12.40;99.90;;;;;;6215722;23;20373;-85
2023/04/08 12:57:52;;;;;;;20.85;16.88;;;12.20;99.90;;;;;;6188238;23;20354;-85
2023/04/08 13:00:20;;;;;;;19.92;17.50;;;12.00;99.90;;;;;;6215232;23;20349;-84
2023/04/08 13:02:51;;;;;;;21.83;17.55;;;11.80;99.90;;;;;;6188447;23;20424;-85